createdAt,value
2022-09-04T00:02:30.815Z,5.60
2022-09-04T00:05:07.079Z,10.67
2022-09-04T00:07:43.340Z,6.80
2022-09-04T00:10:19.582Z,11.90
2022-09-04T00:12:55.273Z,7.07
2022-09-04T00:15:27.655Z,8.00
2022-09-04T00:18:01.138Z,7.03
2022-09-04T00:20:41.094Z,6.87
2022-09-04T00:23:19.480Z,5.63
2022-09-04T00:25:57.566Z,6.63
2022-09-04T00:28:36.072Z,6.60
2022-09-04T00:31:14.721Z,6.50
2022-09-04T00:33:51.501Z,6.30
2022-09-04T00:36:22.548Z,6.87
2022-09-04T00:38:56.413Z,6.90
2022-09-04T00:41:31.067Z,8.17
2022-09-04T00:44:22.476Z,8.20
2022-09-04T00:47:07.615Z,7.67
2022-09-04T00:49:57.480Z,7.17
2022-09-04T00:52:45.074Z,11.00
2022-09-04T00:55:31.713Z,7.80
2022-09-04T00:58:13.772Z,7.17
2022-09-04T01:00:47.177Z,6.90
2022-09-04T01:03:34.797Z,10.97
2022-09-04T01:06:19.262Z,6.17
2022-09-04T01:09:15.006Z,6.30
2022-09-04T01:11:51.009Z,5.40
2022-09-04T01:14:25.409Z,9.30
2022-09-04T01:17:00.812Z,6.97
2022-09-04T01:19:44.363Z,5.10
2022-09-04T01:22:25.629Z,7.27
2022-09-04T01:25:11.280Z,6.60
2022-09-04T01:27:49.721Z,5.60
2022-09-04T01:30:20.289Z,5.83
2022-09-04T01:33:05.499Z,5.70
2022-09-04T01:35:43.583Z,5.47
2022-09-04T01:38:18.964Z,6.47
2022-09-04T01:40:50.641Z,6.80
2022-09-04T01:43:22.043Z,6.53
2022-09-04T01:46:23.212Z,6.53
2022-09-04T01:48:59.713Z,6.20
2022-09-04T01:51:37.672Z,8.90
2022-09-04T01:54:25.248Z,6.20
2022-09-04T01:57:01.835Z,9.23
2022-09-04T01:59:37.993Z,6.70
2022-09-04T02:02:16.530Z,6.53
2022-09-04T02:04:52.878Z,6.20
2022-09-04T02:07:31.881Z,9.23
2022-09-04T02:10:08.054Z,6.23
2022-09-04T02:12:51.149Z,7.73
2022-09-04T02:15:31.636Z,9.17
2022-09-04T02:18:13.194Z,7.03
2022-09-04T02:20:48.398Z,8.07
2022-09-04T02:23:24.963Z,10.17
2022-09-04T02:26:00.162Z,7.27
2022-09-04T02:28:38.710Z,10.73
2022-09-04T02:31:16.603Z,8.60
2022-09-04T02:33:54.817Z,8.90
2022-09-04T02:36:27.169Z,9.20
2022-09-04T02:39:03.960Z,9.50
2022-09-04T02:41:39.855Z,11.60
2022-09-04T02:44:26.524Z,13.90
2022-09-04T02:47:07.729Z,8.67
2022-09-04T02:49:48.518Z,10.50
2022-09-04T02:52:41.836Z,8.33
2022-09-04T02:55:18.974Z,9.03
2022-09-04T02:57:59.175Z,9.57
2022-09-04T03:00:40.004Z,14.00
2022-09-04T03:03:18.163Z,11.80
2022-09-04T03:05:53.425Z,9.50
2022-09-04T03:08:27.006Z,10.57
2022-09-04T03:11:01.793Z,9.63
2022-09-04T03:13:35.014Z,11.03
2022-09-04T03:16:11.260Z,10.07
2022-09-04T03:19:00.008Z,10.00
2022-09-04T03:21:36.206Z,11.10
2022-09-04T03:24:08.490Z,14.77
2022-09-04T03:26:38.635Z,13.37
2022-09-04T03:29:14.974Z,10.20
2022-09-04T03:31:52.182Z,14.13
2022-09-04T03:34:34.091Z,11.83
2022-09-04T03:37:14.001Z,10.57
2022-09-04T03:39:53.119Z,11.57
2022-09-04T03:42:30.311Z,14.10
2022-09-04T03:45:16.431Z,14.10
2022-09-04T03:47:52.022Z,16.43
2022-09-04T03:50:31.290Z,13.77
2022-09-04T03:53:06.368Z,12.40
2022-09-04T03:55:58.126Z,14.13
2022-09-04T03:58:38.204Z,12.63
2022-09-04T04:01:13.519Z,12.13
2022-09-04T04:03:59.179Z,12.50
2022-09-04T04:06:35.489Z,13.60
2022-09-04T04:09:30.560Z,15.40
2022-09-04T04:12:13.131Z,20.07
2022-09-04T04:15:12.273Z,20.33
2022-09-04T04:17:54.373Z,20.27
2022-09-04T04:20:38.223Z,29.23
2022-09-04T04:23:30.754Z,28.73
2022-09-04T04:26:08.807Z,30.20
2022-09-04T04:28:59.689Z,38.47
2022-09-04T04:31:39.299Z,64.73
2022-09-04T04:34:19.660Z,52.90
2022-09-04T04:36:56.290Z,78.97
2022-09-04T04:39:36.637Z,88.37
2022-09-04T04:42:17.237Z,76.40
2022-09-04T04:45:21.838Z,88.23
2022-09-04T04:48:42.565Z,74.33
2022-09-04T04:51:23.303Z,76.50
2022-09-04T04:53:57.518Z,98.30
2022-09-04T04:56:34.839Z,85.87
2022-09-04T04:59:20.464Z,82.67
2022-09-04T05:01:57.275Z,84.63
2022-09-04T05:04:36.829Z,110.33
2022-09-04T05:07:11.988Z,95.63
2022-09-04T05:09:48.903Z,111.67
2022-09-04T05:12:32.003Z,121.07
2022-09-04T05:15:07.846Z,99.00
2022-09-04T05:17:40.936Z,113.03
2022-09-04T05:20:26.102Z,112.73
2022-09-04T05:23:02.840Z,121.10
2022-09-04T05:25:38.039Z,132.90
2022-09-04T05:28:22.794Z,112.33
2022-09-04T05:30:57.076Z,95.23
2022-09-04T05:33:35.649Z,100.10
2022-09-04T05:36:12.755Z,120.27
2022-09-04T05:38:51.212Z,89.97
2022-09-04T05:41:37.231Z,98.93
2022-09-04T05:44:21.012Z,94.37
2022-09-04T05:47:05.689Z,84.27
2022-09-04T05:49:47.256Z,96.00
2022-09-04T05:52:41.312Z,77.53
2022-09-04T05:55:47.057Z,90.90
2022-09-04T05:58:48.345Z,93.20
2022-09-04T06:01:29.463Z,91.97
2022-09-04T06:04:22.783Z,80.77
2022-09-04T06:06:59.416Z,85.00
2022-09-04T06:09:45.060Z,81.17
2022-09-04T06:12:44.053Z,80.17
2022-09-04T06:15:26.491Z,117.40
2022-09-04T06:18:19.581Z,89.47
2022-09-04T06:21:09.769Z,85.03
2022-09-04T06:23:57.700Z,85.70
2022-09-04T06:26:43.566Z,94.57
2022-09-04T06:29:29.234Z,81.40
2022-09-04T06:32:15.130Z,90.63
2022-09-04T06:35:31.813Z,71.87
2022-09-04T06:38:14.398Z,81.40
2022-09-04T06:40:53.681Z,77.30
2022-09-04T06:43:30.509Z,74.27
2022-09-04T06:46:14.020Z,64.17
2022-09-04T06:48:56.969Z,72.83
2022-09-04T06:51:44.820Z,71.73
2022-09-04T06:54:19.436Z,65.90
2022-09-04T06:57:15.529Z,64.80
2022-09-04T07:00:00.825Z,60.30
2022-09-04T07:02:58.984Z,48.57
2022-09-04T07:05:32.140Z,58.50
2022-09-04T07:08:16.948Z,56.50
2022-09-04T07:10:52.285Z,53.10
2022-09-04T07:13:48.053Z,44.43
2022-09-04T07:16:31.127Z,46.80
2022-09-04T07:19:14.804Z,50.97
2022-09-04T07:21:50.699Z,62.53
2022-09-04T07:24:43.671Z,59.73
2022-09-04T07:27:18.851Z,50.70
2022-09-04T07:29:52.678Z,50.37
2022-09-04T07:32:30.097Z,42.07
2022-09-04T07:35:04.010Z,36.60
2022-09-04T07:37:40.869Z,39.20
2022-09-04T07:40:16.705Z,42.50
2022-09-04T07:42:51.172Z,45.93
2022-09-04T07:45:30.986Z,39.63
2022-09-04T07:48:10.242Z,47.10
2022-09-04T07:50:48.623Z,46.07
2022-09-04T07:53:31.828Z,48.63
2022-09-04T07:56:04.710Z,37.00
2022-09-04T07:59:06.181Z,41.37
2022-09-04T08:01:55.331Z,39.87
2022-09-04T08:04:54.312Z,42.13
2022-09-04T08:07:29.387Z,37.93
2022-09-04T08:10:23.330Z,37.43
2022-09-04T08:13:14.348Z,36.47
2022-09-04T08:15:47.393Z,42.50
2022-09-04T08:18:57.438Z,40.10
2022-09-04T08:21:30.304Z,41.33
2022-09-04T08:24:40.586Z,42.70
2022-09-04T08:27:25.741Z,37.70
2022-09-04T08:30:06.005Z,34.97
2022-09-04T08:33:02.294Z,33.80
2022-09-04T08:35:34.809Z,34.27
2022-09-04T08:38:31.808Z,34.87
2022-09-04T08:41:37.345Z,34.90
2022-09-04T08:44:29.939Z,27.70
2022-09-04T08:47:36.546Z,27.73
2022-09-04T08:50:51.708Z,29.70
2022-09-04T08:53:56.274Z,21.73
2022-09-04T08:56:31.027Z,24.93
2022-09-04T08:59:56.140Z,19.20
2022-09-04T09:03:02.360Z,21.33
2022-09-04T09:06:13.230Z,20.20
2022-09-04T09:09:20.964Z,18.90
2022-09-04T09:12:40.883Z,16.57
2022-09-04T09:15:31.451Z,20.30
2022-09-04T09:18:17.675Z,21.70
2022-09-04T09:20:54.020Z,17.40
2022-09-04T09:24:07.728Z,14.40
2022-09-04T09:27:13.540Z,16.67
2022-09-04T09:30:08.407Z,18.40
2022-09-04T09:34:03.138Z,20.30
2022-09-04T09:37:31.007Z,18.43
2022-09-04T09:40:58.770Z,19.00
2022-09-04T09:44:20.629Z,20.10
2022-09-04T09:47:42.075Z,22.60
2022-09-04T09:50:55.203Z,19.13
2022-09-04T09:54:11.473Z,18.83
2022-09-04T09:57:38.990Z,17.30
2022-09-04T10:00:34.740Z,14.57
2022-09-04T10:03:50.342Z,18.43
2022-09-04T10:07:19.829Z,19.00
2022-09-04T10:10:40.526Z,20.47
2022-09-04T10:13:56.859Z,20.97
2022-09-04T10:17:32.148Z,22.93
2022-09-04T10:21:10.488Z,21.43
2022-09-04T10:24:29.354Z,22.50
2022-09-04T10:27:51.009Z,23.90
2022-09-04T10:30:57.452Z,26.33
2022-09-04T10:34:01.541Z,21.93
2022-09-04T10:36:44.079Z,18.30
2022-09-04T10:39:55.584Z,17.50
2022-09-04T10:42:37.119Z,15.33
2022-09-04T10:45:17.733Z,19.93
2022-09-04T10:48:06.132Z,14.97
2022-09-04T10:50:57.455Z,16.20
2022-09-04T10:53:51.300Z,14.60
2022-09-04T10:56:23.802Z,23.77
2022-09-04T10:59:25.064Z,14.57
2022-09-04T11:02:33.135Z,10.73
2022-09-04T11:05:18.834Z,15.03
2022-09-04T11:08:13.036Z,13.80
2022-09-04T11:11:00.036Z,8.93
2022-09-04T11:14:09.072Z,10.37
2022-09-04T11:17:18.254Z,10.63
2022-09-04T11:20:25.236Z,8.00
2022-09-04T11:23:37.698Z,7.90
2022-09-04T11:26:50.568Z,6.47
2022-09-04T11:29:33.771Z,7.10
2022-09-04T11:32:25.216Z,7.57
2022-09-04T11:35:25.865Z,8.00
2022-09-04T11:38:04.635Z,6.80
2022-09-04T11:41:01.088Z,4.20
2022-09-04T11:44:05.285Z,4.13
2022-09-04T11:46:51.029Z,5.80
2022-09-04T11:49:48.796Z,3.73
2022-09-04T11:52:28.216Z,3.20
2022-09-04T11:55:35.341Z,2.90
2022-09-04T11:58:30.138Z,3.03
2022-09-04T12:01:10.406Z,3.07
2022-09-04T12:04:23.156Z,2.33
2022-09-04T12:07:18.702Z,2.90
2022-09-04T12:10:11.956Z,2.50
2022-09-04T12:13:14.975Z,2.13
2022-09-04T12:15:56.662Z,3.10
2022-09-04T12:19:10.861Z,1.83
2022-09-04T12:22:20.223Z,1.63
2022-09-04T12:25:18.453Z,2.77
2022-09-04T12:28:18.400Z,1.50
2022-09-04T12:31:06.194Z,1.73
2022-09-04T12:34:06.158Z,1.00
2022-09-04T12:37:06.133Z,8.97
2022-09-04T12:40:09.306Z,1.43
2022-09-04T12:42:45.629Z,1.23
2022-09-04T12:45:25.259Z,1.60
2022-09-04T12:48:03.281Z,1.50
2022-09-04T12:50:38.442Z,1.30
2022-09-04T12:53:52.429Z,1.73
2022-09-04T12:56:31.319Z,1.40
2022-09-04T12:59:33.662Z,1.20
2022-09-04T13:02:09.701Z,1.30
2022-09-04T13:04:47.227Z,1.30
2022-09-04T13:07:32.248Z,1.05
2022-09-04T13:10:10.942Z,0.95
2022-09-04T13:12:48.447Z,1.10
2022-09-04T13:15:40.664Z,1.30
2022-09-04T13:18:24.468Z,2.45
2022-09-04T13:21:01.936Z,1.10
2022-09-04T13:23:46.598Z,1.10
2022-09-04T13:26:37.356Z,0.90
2022-09-04T13:29:18.243Z,1.10
2022-09-04T13:32:05.440Z,1.10
2022-09-04T13:34:51.724Z,1.30
2022-09-04T13:37:26.639Z,1.00
2022-09-04T13:40:12.513Z,0.90
2022-09-04T13:43:13.324Z,0.80
2022-09-04T13:45:44.125Z,1.00
2022-09-04T13:48:15.067Z,2.15
2022-09-04T13:50:49.231Z,1.10
2022-09-04T13:53:23.980Z,1.80
2022-09-04T13:55:57.327Z,1.17
2022-09-04T13:58:31.171Z,1.00
2022-09-04T14:01:01.911Z,0.90
2022-09-04T14:03:38.643Z,1.00
2022-09-04T14:06:12.903Z,1.58
2022-09-04T14:08:46.052Z,0.93
2022-09-04T14:12:08.802Z,0.70
2022-09-04T14:14:56.847Z,0.90
2022-09-04T14:17:33.993Z,0.90
2022-09-04T14:20:08.838Z,2.25
2022-09-04T14:22:50.059Z,1.13
2022-09-04T14:25:30.576Z,0.90
2022-09-04T14:28:23.245Z,0.90
2022-09-04T14:31:10.645Z,0.90
2022-09-04T14:33:49.955Z,1.13
2022-09-04T14:36:35.490Z,1.50
2022-09-04T14:39:25.167Z,1.63
2022-09-04T14:42:22.224Z,1.95
2022-09-04T14:45:09.551Z,1.02
2022-09-04T14:47:44.205Z,5.47
2022-09-04T14:50:16.806Z,2.55
2022-09-04T14:52:49.546Z,1.88
2022-09-04T14:55:26.518Z,2.05
2022-09-04T14:58:00.473Z,0.95
2022-09-04T15:00:29.902Z,0.90
2022-09-04T15:03:06.446Z,1.20
2022-09-04T15:05:37.176Z,3.55
2022-09-04T15:08:08.251Z,2.50
2022-09-04T15:10:49.918Z,1.00
2022-09-04T15:13:35.593Z,1.02
2022-09-04T15:16:20.702Z,1.33
2022-09-04T15:19:03.595Z,3.80
2022-09-04T15:21:39.552Z,1.37
2022-09-04T15:24:17.490Z,1.63
2022-09-04T15:26:55.672Z,3.00
2022-09-04T15:29:29.462Z,1.77
2022-09-04T15:32:03.133Z,2.97
2022-09-04T15:34:32.388Z,1.67
2022-09-04T15:37:18.019Z,1.67
2022-09-04T15:39:56.968Z,4.73
2022-09-04T15:42:44.144Z,1.30
2022-09-04T15:45:21.607Z,8.33
2022-09-04T15:48:07.272Z,2.37
2022-09-04T15:50:40.350Z,1.73
2022-09-04T15:53:25.121Z,1.70
2022-09-04T15:56:10.590Z,1.83
2022-09-04T15:58:51.097Z,2.03
2022-09-04T16:01:24.972Z,1.60
2022-09-04T16:04:02.000Z,2.03
2022-09-04T16:06:32.825Z,1.60
2022-09-04T16:09:05.430Z,2.60
2022-09-04T16:11:38.430Z,2.30
2022-09-04T16:14:18.440Z,4.20
2022-09-04T16:16:49.628Z,13.67
2022-09-04T16:19:30.043Z,3.80
2022-09-04T16:22:09.969Z,2.10
2022-09-04T16:24:44.370Z,10.47
2022-09-04T16:27:15.309Z,3.33
2022-09-04T16:29:51.204Z,4.03
2022-09-04T16:32:25.833Z,2.77
2022-09-04T16:34:59.144Z,2.90
2022-09-04T16:37:33.371Z,5.00
2022-09-04T16:40:13.538Z,2.40
2022-09-04T16:42:50.102Z,4.83
2022-09-04T16:45:24.731Z,3.73
2022-09-04T16:47:59.118Z,2.30
2022-09-04T16:50:43.529Z,2.83
2022-09-04T16:53:17.471Z,3.33
2022-09-04T16:55:58.106Z,2.03
2022-09-04T16:58:39.940Z,3.20
2022-09-04T17:01:16.597Z,3.97
2022-09-04T17:04:12.589Z,5.67
2022-09-04T17:06:54.352Z,3.93
2022-09-04T17:09:28.358Z,4.10
2022-09-04T17:12:03.177Z,2.10
2022-09-04T17:14:37.707Z,3.37
2022-09-04T17:17:30.231Z,2.97
2022-09-04T17:20:07.376Z,7.83
2022-09-04T17:29:01.714Z,2.83
2022-09-04T17:29:15.598Z,3.10
2022-09-04T17:29:29.527Z,3.00
2022-09-04T17:31:53.990Z,2.97
2022-09-04T17:40:32.086Z,3.37
2022-09-04T17:40:49.876Z,2.33
2022-09-04T17:43:34.201Z,2.60
2022-09-04T17:46:26.503Z,2.10
2022-09-04T17:48:55.114Z,4.70
2022-09-04T17:51:27.489Z,4.07
2022-09-04T17:53:58.162Z,5.80
2022-09-04T17:56:31.423Z,2.30
2022-09-04T17:59:06.285Z,5.97
2022-09-04T18:01:39.400Z,2.20
2022-09-04T18:04:33.708Z,2.90
2022-09-04T18:07:29.033Z,5.93
2022-09-04T18:10:10.783Z,2.63
2022-09-04T18:12:44.941Z,2.30
2022-09-04T18:15:34.354Z,2.07
2022-09-04T18:18:12.573Z,7.60
2022-09-04T18:20:45.026Z,2.67
2022-09-04T18:23:51.374Z,2.90
2022-09-04T18:26:40.114Z,5.47
2022-09-04T18:31:53.998Z,2.60
2022-09-04T18:37:10.952Z,3.00
2022-09-04T18:37:16.157Z,2.87
2022-09-04T18:38:19.537Z,4.80
2022-09-04T18:43:52.673Z,6.33
2022-09-04T18:50:35.291Z,2.70
2022-09-04T18:50:38.074Z,4.43
2022-09-04T18:50:41.119Z,5.43
2022-09-04T18:52:18.654Z,7.50
2022-09-04T18:54:50.950Z,2.40
2022-09-04T18:57:31.608Z,2.73
2022-09-04T19:00:08.663Z,2.37
2022-09-04T19:02:53.177Z,2.17
2022-09-04T19:05:24.041Z,4.63
2022-09-04T19:07:57.127Z,2.30
2022-09-04T19:10:28.379Z,2.63
2022-09-04T19:13:03.124Z,2.30
2022-09-04T19:15:43.819Z,2.40
2022-09-04T19:18:26.666Z,2.50
2022-09-04T19:21:14.738Z,4.60
2022-09-04T19:23:49.137Z,3.97
2022-09-04T19:26:26.840Z,2.57
2022-09-04T19:29:00.753Z,2.47
2022-09-04T19:31:34.653Z,6.20
2022-09-04T19:34:13.016Z,3.57
2022-09-04T19:36:45.140Z,2.67
2022-09-04T19:45:57.691Z,3.47
2022-09-04T19:46:09.466Z,2.77
2022-09-04T19:46:17.788Z,2.23
2022-09-04T19:48:26.422Z,3.30
2022-09-04T19:53:24.001Z,2.80
2022-09-04T19:53:57.431Z,5.13
2022-09-04T19:56:30.457Z,3.10
2022-09-04T19:59:05.670Z,2.83
2022-09-04T20:01:46.216Z,2.77
2022-09-04T20:04:27.629Z,2.20
2022-09-04T20:06:59.518Z,3.03
2022-09-04T20:09:33.526Z,2.83
2022-09-04T20:12:06.206Z,3.77
2022-09-04T20:14:41.037Z,2.83
2022-09-04T20:17:24.426Z,3.00
2022-09-04T20:19:55.147Z,2.30
2022-09-04T20:22:36.322Z,2.20
2022-09-04T20:25:43.069Z,2.57
2022-09-04T20:28:29.342Z,2.50
2022-09-04T20:31:35.937Z,3.97
2022-09-04T20:34:35.540Z,2.93
2022-09-04T20:37:22.530Z,2.90
2022-09-04T20:40:01.399Z,2.50
2022-09-04T20:42:35.685Z,2.70
2022-09-04T20:47:05.019Z,7.07
2022-09-04T20:52:43.429Z,2.70
2022-09-04T20:52:52.039Z,3.03
2022-09-04T20:53:50.162Z,2.30
2022-09-04T20:58:10.381Z,2.30
2022-09-04T21:03:07.690Z,3.00
2022-09-04T21:03:20.090Z,4.07
2022-09-04T21:05:33.671Z,2.37
2022-09-04T21:08:10.794Z,2.30
2022-09-04T21:10:48.219Z,2.37
2022-09-04T21:13:22.501Z,2.47
2022-09-04T21:15:57.065Z,2.23
2022-09-04T21:19:28.905Z,2.13
2022-09-04T21:22:32.655Z,4.50
2022-09-04T21:25:28.050Z,1.87
2022-09-04T21:28:31.184Z,2.13
2022-09-04T21:31:16.118Z,2.10
2022-09-04T21:33:58.416Z,2.63
2022-09-04T21:36:31.725Z,2.47
2022-09-04T21:39:34.059Z,2.10
2022-09-04T21:42:34.641Z,2.20
2022-09-04T21:45:25.178Z,2.30
2022-09-04T21:48:17.890Z,2.63
2022-09-04T21:51:17.093Z,2.43
2022-09-04T21:57:13.525Z,2.40
2022-09-04T22:02:26.722Z,2.00
2022-09-04T22:02:35.690Z,2.50
2022-09-04T22:04:06.137Z,2.27
2022-09-04T22:08:47.746Z,2.40
2022-09-04T22:13:30.802Z,2.10
2022-09-04T22:13:41.162Z,2.10
2022-09-04T22:16:01.120Z,2.33
2022-09-04T22:18:52.574Z,2.43
2022-09-04T22:21:30.864Z,3.47
2022-09-04T22:24:31.153Z,2.27
2022-09-04T22:27:19.638Z,2.27
2022-09-04T22:30:02.356Z,3.90
2022-09-04T22:33:01.054Z,2.30
2022-09-04T22:35:59.457Z,2.40
2022-09-04T22:38:35.845Z,2.23
2022-09-04T22:41:22.592Z,2.50
2022-09-04T22:44:00.664Z,2.30
2022-09-04T22:46:51.942Z,2.33
2022-09-04T22:49:47.364Z,2.40
2022-09-04T22:52:38.090Z,2.90
2022-09-04T22:55:40.197Z,2.83
2022-09-04T22:58:27.382Z,2.17
2022-09-04T23:01:15.898Z,2.27
2022-09-04T23:03:55.624Z,4.10
2022-09-04T23:11:07.026Z,2.50
2022-09-04T23:13:56.459Z,2.33
2022-09-04T23:13:59.758Z,2.83
2022-09-04T23:16:35.713Z,2.43
2022-09-04T23:22:30.914Z,2.40
2022-09-04T23:26:43.054Z,4.43
2022-09-04T23:26:47.169Z,2.23
2022-09-04T23:28:27.678Z,2.10
2022-09-04T23:31:19.839Z,2.43
2022-09-04T23:34:15.501Z,2.83
2022-09-04T23:37:03.627Z,8.60
2022-09-04T23:40:16.550Z,3.00
2022-09-04T23:43:18.803Z,3.30
2022-09-04T23:46:02.298Z,3.03
2022-09-04T23:48:52.476Z,2.70
2022-09-04T23:51:31.023Z,3.00
2022-09-04T23:54:24.560Z,3.00
2022-09-04T23:56:59.882Z,5.43
2022-09-04T23:59:36.657Z,3.20
